Flight Track Log - Related Links

Times and Time Zones

All times are in EDT time to prevent confusion due to time zone crossing. See the AVA31 flight status page for this flight to view local times or setup timezone preferences in your user account.

Time Position Orientation Groundspeed Altitude Reporting Facility
EDT Latitude Longitude Course Direction KTS MPH feet Rate Location/Type
Sat 04:34:41 PM 25.7814 -80.2764 115° Southeast 151 174 1,000  Level Miami Center
Sat 04:35:24 PM 25.7656 -80.2389 115° Southeast 199 229 1,800 1,442 Climbing Miami Center
Sat 04:36:25 PM 25.7272 -80.1803 126° Southeast 272 313 3,500 2,146 Climbing Miami Center
Sat 04:37:27 PM 25.6481 -80.1689 173° South 283 326 6,200 2,400 Climbing Miami Center
Sat 04:37:45 PM 25.6294 -80.1661 172° South 282 325 6,700 2,231 Climbing Miami Center
Sat 04:38:45 PM 25.5483 -80.1453 167° South 304 350 9,100 2,050 Climbing Miami Center
Sat 04:39:45 PM 25.4719 -80.0997 152° Southeast 304 350 10,800 1,550 Climbing Miami Center
Sat 04:40:45 PM 25.3789 -80.0603 159° South 329 379 12,200 1,700 Climbing Miami Center
Sat 04:41:45 PM 25.2772 -80.0256 163° South 364 419 14,200 1,950 Climbing Miami Center
Sat 04:42:45 PM 25.1758 -79.9839 160° South 379 436 16,100 1,750 Climbing Miami Center
Sat 04:43:45 PM 25.0681 -79.9419 161° South 397 457 17,700 2,050 Climbing Miami Center
Sat 04:44:45 PM 24.9664 -79.9028 161° South 398 458 20,200 1,950 Climbing Miami Center
Sat 04:45:45 PM 24.8628 -79.8636 161° South 398 458 21,600 1,400 Climbing Miami Center
Sat 04:46:45 PM 24.7550 -79.8244 162° South 398 458 23,000 1,450 Climbing Miami Center
Sat 04:47:45 PM 24.6472 -79.7831 161° South 405 466 24,500 1,200 Climbing Miami Center
Sat 04:48:45 PM 24.5350 -79.7439 162° South 410 472 25,400 1,100 Climbing Miami Center
Sat 04:49:45 PM 24.4231 -79.6978 159° South 421 484 26,700 1,200 Climbing Miami Center
Sat 04:50:45 PM 24.3069 -79.6564 162° South 426 490 27,800 1,050 Climbing Miami Center
Sat 04:51:45 PM 24.1886 -79.6106 161° South 437 503 28,800 950 Climbing Miami Center
Sat 04:52:45 PM 24.0683 -79.5692 163° South 443 510 29,700 900 Climbing Miami Center
Sat 04:54:00 PM 23.9312 -79.5080 161° South  Level FlightAware Approximate
Sat 05:01:00 PM 23.1453 -79.2188 161° South  Level FlightAware Approximate
Sat 05:02:00 PM 23.0330 -79.1774 161° South  Level FlightAware Approximate
Sat 05:03:00 PM 22.9208 -79.1361 161° South  Level FlightAware Approximate
Sat 05:04:00 PM 22.8086 -79.0949 161° South  Level FlightAware Approximate
Sat 05:05:00 PM 22.6963 -79.0537 161° South  Level FlightAware Approximate
Sat 05:06:00 PM 22.5841 -79.0126 161° South  Level FlightAware Approximate
Sat 05:07:00 PM 22.4718 -78.9716 161° South  Level FlightAware Approximate
Sat 05:08:00 PM 22.3595 -78.9307 161° South  Level FlightAware Approximate
Sat 05:09:00 PM 22.2472 -78.8898 161° South  Level FlightAware Approximate
Sat 05:10:00 PM 22.1349 -78.8490 161° South  Level FlightAware Approximate
Sat 05:11:00 PM 22.0226 -78.8082 161° South  Level FlightAware Approximate
Sat 05:12:00 PM 21.9078 -78.7769 167° South  Level FlightAware Approximate
Sat 05:13:00 PM 21.7924 -78.7480 167° South  Level FlightAware Approximate
Sat 05:14:00 PM 21.6769 -78.7192 167° South  Level FlightAware Approximate
Sat 05:15:00 PM 21.5625 -78.6863 165° South  Level FlightAware Approximate
Sat 05:16:00 PM 21.4481 -78.6530 165° South  Level FlightAware Approximate
Sat 05:17:00 PM 21.3337 -78.6197 165° South  Level FlightAware Approximate
Sat 05:18:00 PM 21.2194 -78.5865 165° South  Level FlightAware Approximate
Sat 05:19:00 PM 21.1050 -78.5533 165° South  Level FlightAware Approximate
Sat 05:20:00 PM 20.9906 -78.5202 165° South  Level FlightAware Approximate
Sat 05:21:00 PM 20.8762 -78.4872 165° South  Level FlightAware Approximate
Sat 05:22:00 PM 20.7618 -78.4541 165° South  Level FlightAware Approximate
Sat 05:23:00 PM 20.6474 -78.4212 165° South  Level FlightAware Approximate
Sat 05:24:00 PM 20.5329 -78.3883 165° South  Level FlightAware Approximate
Sat 05:25:00 PM 20.4185 -78.3554 165° South  Level FlightAware Approximate
Sat 05:26:00 PM 20.3041 -78.3226 165° South  Level FlightAware Approximate
Sat 05:27:00 PM 20.1896 -78.2898 165° South  Level FlightAware Approximate
Sat 05:28:00 PM 20.0752 -78.2571 165° South  Level FlightAware Approximate
Sat 05:29:00 PM 19.9608 -78.2245 165° South  Level FlightAware Approximate
Sat 05:30:00 PM 19.8462 -78.1923 165° South  Level FlightAware Approximate
Sat 05:31:00 PM 19.7316 -78.1604 165° South  Level FlightAware Approximate
Sat 05:32:00 PM 19.6169 -78.1285 165° South  Level FlightAware Approximate
Sat 05:33:00 PM 19.5023 -78.0966 165° South  Level FlightAware Approximate
Sat 05:34:00 PM 19.3877 -78.0648 165° South  Level FlightAware Approximate
Sat 05:35:00 PM 19.2730 -78.0331 165° South  Level FlightAware Approximate
Sat 05:36:00 PM 19.1584 -78.0013 165° South  Level FlightAware Approximate
Sat 05:37:00 PM 19.0438 -77.9697 165° South  Level FlightAware Approximate
Sat 05:38:00 PM 18.9291 -77.9380 165° South  Level FlightAware Approximate
Sat 05:39:00 PM 18.8144 -77.9064 165° South  Level FlightAware Approximate
Sat 05:40:00 PM 18.6998 -77.8749 165° South  Level FlightAware Approximate
Sat 05:41:00 PM 18.5851 -77.8434 165° South  Level FlightAware Approximate
Sat 05:42:00 PM 18.4704 -77.8119 165° South  Level FlightAware Approximate
Sat 05:43:00 PM 18.3557 -77.7805 165° South  Level FlightAware Approximate
Sat 05:44:00 PM 18.2410 -77.7491 165° South  Level FlightAware Approximate
Sat 05:45:00 PM 18.1264 -77.7178 165° South  Level FlightAware Approximate
Sat 05:46:00 PM 18.0117 -77.6864 165° South  Level FlightAware Approximate
Sat 05:47:00 PM 17.8969 -77.6552 165° South  Level FlightAware Approximate
Sat 05:48:00 PM 17.7823 -77.6238 165° South  Level FlightAware Approximate
Sat 05:49:00 PM 17.6677 -77.5922 165° South  Level FlightAware Approximate
Sat 05:50:00 PM 17.5531 -77.5606 165° South  Level FlightAware Approximate
Sat 05:51:00 PM 17.4385 -77.5290 165° South  Level FlightAware Approximate
Sat 05:52:00 PM 17.3239 -77.4975 165° South  Level FlightAware Approximate
Sat 05:53:00 PM 17.2092 -77.4660 165° South  Level FlightAware Approximate
Sat 05:54:00 PM 17.0946 -77.4346 165° South  Level FlightAware Approximate
Sat 05:55:00 PM 16.9800 -77.4032 165° South  Level FlightAware Approximate
Sat 05:56:00 PM 16.8654 -77.3718 165° South  Level FlightAware Approximate
Sat 05:57:00 PM 16.7507 -77.3405 165° South  Level FlightAware Approximate
Sat 05:58:00 PM 16.6361 -77.3092 165° South  Level FlightAware Approximate
Sat 05:59:00 PM 16.5214 -77.2779 165° South  Level FlightAware Approximate
Sat 06:00:00 PM 16.4068 -77.2467 165° South  Level FlightAware Approximate
Sat 06:01:00 PM 16.2921 -77.2155 165° South  Level FlightAware Approximate
Sat 06:02:00 PM 16.1775 -77.1844 165° South  Level FlightAware Approximate
Sat 06:03:00 PM 16.0628 -77.1533 165° South  Level FlightAware Approximate
Sat 06:04:00 PM 15.9481 -77.1222 165° South  Level FlightAware Approximate
Sat 06:05:00 PM 15.8335 -77.0912 165° South  Level FlightAware Approximate
Sat 06:06:00 PM 15.7188 -77.0602 165° South  Level FlightAware Approximate
Sat 06:07:00 PM 15.6041 -77.0292 165° South  Level FlightAware Approximate
Sat 06:08:00 PM 15.4894 -76.9983 165° South  Level FlightAware Approximate
Sat 06:09:00 PM 15.3747 -76.9674 165° South  Level FlightAware Approximate
Sat 06:10:00 PM 15.2600 -76.9365 165° South  Level FlightAware Approximate
Sat 06:11:00 PM 15.1454 -76.9057 165° South  Level FlightAware Approximate
Sat 06:12:00 PM 15.0307 -76.8749 165° South  Level FlightAware Approximate
Sat 06:13:00 PM 14.9147 -76.8497 169° South  Level FlightAware Approximate
Sat 06:14:00 PM 14.7984 -76.8266 169° South  Level FlightAware Approximate
Sat 06:15:00 PM 14.6820 -76.8035 169° South  Level FlightAware Approximate
Sat 06:16:00 PM 14.5656 -76.7804 169° South  Level FlightAware Approximate
Sat 06:17:00 PM 14.4493 -76.7574 169° South  Level FlightAware Approximate
Sat 06:18:00 PM 14.3329 -76.7343 169° South  Level FlightAware Approximate
Sat 06:19:00 PM 14.2165 -76.7113 169° South  Level FlightAware Approximate
Sat 06:20:00 PM 14.1001 -76.6884 169° South  Level FlightAware Approximate
Sat 06:21:00 PM 13.9837 -76.6654 169° South  Level FlightAware Approximate
Sat 06:22:00 PM 13.8674 -76.6425 169° South  Level FlightAware Approximate
Sat 06:23:00 PM 13.7510 -76.6196 169° South  Level FlightAware Approximate
Sat 06:24:00 PM 13.6346 -76.5967 169° South  Level FlightAware Approximate
Sat 06:25:00 PM 13.5183 -76.5732 168° South  Level FlightAware Approximate
Sat 06:26:00 PM 13.4022 -76.5488 168° South  Level FlightAware Approximate
Sat 06:27:00 PM 13.2861 -76.5245 168° South  Level FlightAware Approximate
Sat 06:28:00 PM 13.1700 -76.5002 168° South  Level FlightAware Approximate
Sat 06:29:00 PM 13.0539 -76.4759 168° South  Level FlightAware Approximate
Sat 06:30:00 PM 12.9378 -76.4517 168° South  Level FlightAware Approximate
Sat 06:31:00 PM 12.8216 -76.4276 169° South  Level FlightAware Approximate
Sat 06:32:00 PM 12.7053 -76.4043 169° South  Level FlightAware Approximate
Sat 06:33:00 PM 12.5891 -76.3810 169° South  Level FlightAware Approximate
Sat 06:34:00 PM 12.4728 -76.3576 169° South  Level FlightAware Approximate
Sat 06:35:00 PM 12.3565 -76.3344 169° South  Level FlightAware Approximate
Sat 06:36:00 PM 12.2402 -76.3111 169° South  Level FlightAware Approximate
Sat 06:37:00 PM 12.1239 -76.2878 169° South  Level FlightAware Approximate
Sat 06:38:00 PM 12.0076 -76.2646 169° South  Level FlightAware Approximate
Sat 06:39:00 PM 11.8913 -76.2414 169° South  Level FlightAware Approximate
Sat 06:40:00 PM 11.7750 -76.2182 169° South  Level FlightAware Approximate
Sat 06:41:00 PM 11.6587 -76.1950 169° South  Level FlightAware Approximate
Sat 06:42:00 PM 11.5424 -76.1719 169° South  Level FlightAware Approximate
Sat 06:43:00 PM 11.4261 -76.1488 169° South  Level FlightAware Approximate
Sat 06:44:00 PM 11.3098 -76.1256 169° South  Level FlightAware Approximate
Sat 06:45:00 PM 11.1935 -76.1025 169° South  Level FlightAware Approximate
Sat 06:46:00 PM 11.0772 -76.0795 169° South  Level FlightAware Approximate
Sat 06:47:00 PM 10.9608 -76.0564 169° South  Level FlightAware Approximate
Sat 06:48:00 PM 10.8445 -76.0334 169° South  Level FlightAware Approximate
Sat 06:49:00 PM 10.7282 -76.0104 169° South  Level FlightAware Approximate
Sat 06:50:00 PM 10.6119 -75.9874 169° South  Level FlightAware Approximate
Sat 06:51:00 PM 10.4956 -75.9644 169° South  Level FlightAware Approximate
Sat 06:52:00 PM 10.3792 -75.9414 169° South  Level FlightAware Approximate
Sat 06:53:00 PM 10.2629 -75.9185 169° South  Level FlightAware Approximate
Sat 06:54:00 PM 10.1466 -75.8955 169° South  Level FlightAware Approximate
Sat 06:55:00 PM 10.0303 -75.8726 169° South  Level FlightAware Approximate
Sat 06:56:00 PM 9.9138 -75.8502 169° South  Level FlightAware Approximate
Sat 06:57:00 PM 9.7974 -75.8279 169° South  Level FlightAware Approximate
Sat 06:58:00 PM 9.6810 -75.8057 169° South  Level FlightAware Approximate
Sat 06:59:00 PM 9.5645 -75.7835 169° South  Level FlightAware Approximate
Sat 07:00:00 PM 9.4480 -75.7613 169° South  Level FlightAware Approximate
Sat 07:01:00 PM 9.3316 -75.7391 169° South  Level FlightAware Approximate
Sat 07:02:00 PM 9.2151 -75.7170 169° South  Level FlightAware Approximate
Sat 07:03:00 PM 9.0987 -75.6948 169° South  Level FlightAware Approximate
Sat 07:04:00 PM 8.9822 -75.6727 169° South  Level FlightAware Approximate
Sat 07:05:00 PM 8.8658 -75.6505 169° South  Level FlightAware Approximate
Sat 07:06:00 PM 8.7493 -75.6284 169° South  Level FlightAware Approximate
Sat 07:07:00 PM 8.6328 -75.6063 169° South  Level FlightAware Approximate
Sat 07:08:00 PM 8.5164 -75.5842 169° South  Level FlightAware Approximate
Sat 07:09:00 PM 8.3999 -75.5622 169° South  Level FlightAware Approximate
Sat 07:10:00 PM 8.2834 -75.5401 169° South  Level FlightAware Approximate
Sat 07:11:00 PM 8.1670 -75.5181 169° South  Level FlightAware Approximate
Sat 07:12:00 PM 8.0505 -75.4960 169° South  Level FlightAware Approximate
Sat 07:13:00 PM 7.9346 -75.4712 166° South  Level FlightAware Approximate
Sat 07:14:00 PM 7.8187 -75.4500 180° South  Level FlightAware Approximate
Sat 07:15:00 PM 7.7002 -75.4500 180° South  Level FlightAware Approximate
Sat 07:16:00 PM 7.5817 -75.4500 180° South  Level FlightAware Approximate
Sat 07:17:00 PM 7.4634 -75.4450 176° South  Level FlightAware Approximate
Sat 07:18:00 PM 7.3452 -75.4366 176° South  Level FlightAware Approximate
Sat 07:19:00 PM 7.2268 -75.4333 180° South  Level FlightAware Approximate
Sat 07:20:00 PM 7.1083 -75.4333 180° South  Level FlightAware Approximate
Sat 07:21:00 PM 6.9899 -75.4323 178° South  Level FlightAware Approximate
Sat 07:22:00 PM 6.8714 -75.4277 178° South  Level FlightAware Approximate
Sat 07:23:00 PM 6.7530 -75.4232 178° South  Level FlightAware Approximate
Sat 07:24:00 PM 6.6346 -75.4186 178° South  Level FlightAware Approximate
Sat 07:25:00 PM 6.5162 -75.4167 180° South  Level FlightAware Approximate
Sat 07:26:00 PM 6.3977 -75.4167 180° South  Level FlightAware Approximate
Sat 07:27:00 PM 6.2792 -75.4167 180° South  Level FlightAware Approximate
Sat 07:28:00 PM 6.1607 -75.4167 180° South  Level FlightAware Approximate
Sat 07:29:00 PM 6.1645 -75.4231 180° South  Level Estimated
Sat 07:30:00 PM 6.1645 -75.4231 North  Level Estimated
Sat 07:31:00 PM 6.1645 -75.4231 North  Level Estimated
Sat 07:32:00 PM 6.1645 -75.4231 North  Level Estimated
Sat 07:33:00 PM 6.1645 -75.4231 North  Level Estimated
Sat 07:34:00 PM 6.1645 -75.4231 North  Level Estimated
Sat 07:35:00 PM 6.1645 -75.4231 North  Level Estimated
Sat 07:36:00 PM 6.1645 -75.4231 North  Level Estimated
Sat 07:37:00 PM 6.1645 -75.4231 North  Level Estimated
Sat 07:38:00 PM 6.1645 -75.4231 North  Level Estimated
Sat 07:39:00 PM 6.1645 -75.4231 North  Level Estimated
Sat 07:40:00 PM 6.1645 -75.4231 North  Level Estimated
Sat 07:41:00 PM 6.1645 -75.4231 North  Level Estimated
Sat 07:42:00 PM 6.1645 -75.4231 North  Level Estimated
Sat 07:43:00 PM 6.1645 -75.4231 North  Level Estimated
Sat 07:44:00 PM 6.1645 -75.4231 North  Level Estimated

Login

Don't have an account? Register now (free) for customized features, flight alerts, and more!